createdAt,value
2022-10-19T00:01:01.563Z,4.30
2022-10-19T00:03:29.656Z,4.32
2022-10-19T00:05:56.958Z,4.10
2022-10-19T00:08:24.630Z,4.25
2022-10-19T00:10:51.945Z,4.13
2022-10-19T00:13:19.105Z,4.47
2022-10-19T00:15:46.363Z,4.00
2022-10-19T00:18:13.674Z,3.95
2022-10-19T00:20:40.869Z,4.18
2022-10-19T00:23:08.098Z,3.90
2022-10-19T00:25:36.878Z,3.63
2022-10-19T00:28:04.129Z,4.40
2022-10-19T00:30:31.455Z,4.15
2022-10-19T00:32:58.627Z,4.45
2022-10-19T00:35:25.797Z,3.80
2022-10-19T00:37:53.083Z,4.20
2022-10-19T00:40:20.319Z,4.47
2022-10-19T00:42:47.557Z,3.92
2022-10-19T00:45:16.496Z,4.20
2022-10-19T00:47:44.233Z,3.80
2022-10-19T00:50:11.836Z,3.90
2022-10-19T00:52:39.052Z,4.10
2022-10-19T00:55:07.791Z,4.10
2022-10-19T00:57:35.449Z,4.18
2022-10-19T01:00:05.333Z,3.90
2022-10-19T01:02:32.939Z,3.30
2022-10-19T01:05:00.441Z,3.47
2022-10-19T01:07:27.822Z,3.63
2022-10-19T01:09:55.407Z,3.30
2022-10-19T01:12:32.486Z,2.97
2022-10-19T01:14:59.762Z,3.47
2022-10-19T01:17:39.338Z,3.30
2022-10-19T01:20:09.501Z,3.22
2022-10-19T01:22:36.717Z,3.15
2022-10-19T01:25:06.903Z,2.90
2022-10-19T01:27:34.400Z,2.80
2022-10-19T01:30:03.568Z,2.92
2022-10-19T01:32:30.724Z,2.90
2022-10-19T01:35:08.849Z,2.50
2022-10-19T01:37:56.370Z,2.53
2022-10-19T01:40:42.976Z,2.58
2022-10-19T01:43:13.780Z,2.75
2022-10-19T01:45:48.330Z,2.67
2022-10-19T01:48:21.509Z,2.50
2022-10-19T01:50:53.146Z,2.50
2022-10-19T01:53:21.288Z,2.65
2022-10-19T01:55:50.740Z,2.60
2022-10-19T01:58:19.834Z,1.98
2022-10-19T02:00:47.673Z,2.40
2022-10-19T02:03:15.839Z,2.13
2022-10-19T02:05:44.909Z,2.22
2022-10-19T02:08:13.857Z,2.50
2022-10-19T02:10:42.898Z,2.60
2022-10-19T02:13:10.442Z,2.70
2022-10-19T02:15:40.221Z,2.20
2022-10-19T02:18:07.560Z,2.20
2022-10-19T02:20:36.959Z,2.40
2022-10-19T02:23:07.532Z,2.33
2022-10-19T02:25:34.921Z,2.28
2022-10-19T02:28:03.369Z,2.35
2022-10-19T02:30:30.700Z,2.47
2022-10-19T02:32:57.956Z,2.42
2022-10-19T02:35:25.214Z,2.55
2022-10-19T02:37:52.470Z,2.35
2022-10-19T02:40:19.981Z,2.67
2022-10-19T02:42:55.037Z,2.50
2022-10-19T02:45:29.841Z,2.33
2022-10-19T02:48:05.734Z,2.45
2022-10-19T02:50:33.061Z,2.40
2022-10-19T02:53:00.629Z,2.20
2022-10-19T02:55:28.854Z,2.35
2022-10-19T02:57:57.256Z,2.30
2022-10-19T03:00:24.417Z,2.28
2022-10-19T03:02:51.918Z,2.30
2022-10-19T03:05:19.097Z,2.33
2022-10-19T03:07:46.857Z,2.25
2022-10-19T03:10:14.085Z,2.15
2022-10-19T03:12:41.304Z,2.13
2022-10-19T03:15:08.805Z,2.00
2022-10-19T03:17:36.350Z,2.40
2022-10-19T03:20:03.908Z,2.20
2022-10-19T03:22:31.196Z,1.98
2022-10-19T03:24:58.383Z,2.10
2022-10-19T03:27:25.594Z,1.85
2022-10-19T03:29:52.863Z,2.00
2022-10-19T03:32:20.053Z,2.33
2022-10-19T03:34:47.285Z,2.08
2022-10-19T03:37:15.277Z,2.05
2022-10-19T03:39:42.484Z,1.98
2022-10-19T03:42:09.761Z,2.00
2022-10-19T03:44:36.952Z,2.10
2022-10-19T03:47:04.143Z,1.95
2022-10-19T03:49:31.404Z,1.90
2022-10-19T03:51:58.618Z,2.10
2022-10-19T03:54:27.423Z,2.13
2022-10-19T03:56:54.800Z,2.10
2022-10-19T03:59:23.011Z,1.85
2022-10-19T04:01:50.250Z,1.90
2022-10-19T04:04:18.260Z,2.00
2022-10-19T04:06:48.809Z,2.00
2022-10-19T04:09:17.822Z,1.75
2022-10-19T04:11:45.187Z,1.95
2022-10-19T04:14:26.640Z,2.17
2022-10-19T04:17:00.693Z,1.85
2022-10-19T04:19:27.887Z,1.67
2022-10-19T04:21:55.089Z,1.85
2022-10-19T04:24:22.243Z,1.90
2022-10-19T04:26:53.723Z,1.95
2022-10-19T04:29:24.988Z,1.70
2022-10-19T04:31:55.250Z,1.83
2022-10-19T04:34:22.541Z,1.60
2022-10-19T04:36:50.335Z,2.00
2022-10-19T04:39:17.671Z,1.70
2022-10-19T04:41:44.860Z,1.55
2022-10-19T04:44:12.103Z,1.60
2022-10-19T04:46:39.445Z,1.80
2022-10-19T04:49:06.966Z,1.83
2022-10-19T04:51:34.285Z,1.70
2022-10-19T04:54:02.624Z,1.70
2022-10-19T04:56:30.841Z,3.35
2022-10-19T04:58:58.517Z,1.63
2022-10-19T05:01:26.738Z,1.67
2022-10-19T05:06:27.601Z,1.52
2022-10-19T05:08:55.177Z,1.40
2022-10-19T05:11:24.838Z,1.73
2022-10-19T05:13:52.122Z,1.75
2022-10-19T05:16:20.657Z,1.50
2022-10-19T05:18:48.909Z,1.40
2022-10-19T05:21:16.464Z,1.58
2022-10-19T05:23:43.805Z,1.50
2022-10-19T05:26:16.572Z,1.55
2022-10-19T05:28:44.038Z,1.38
2022-10-19T05:31:11.255Z,1.40
2022-10-19T05:33:38.927Z,1.30
2022-10-19T05:36:15.521Z,1.40
2022-10-19T05:38:43.307Z,1.42
2022-10-19T05:41:10.556Z,4.03
2022-10-19T05:43:37.835Z,2.20
2022-10-19T05:46:09.445Z,1.70
2022-10-19T05:48:38.213Z,1.60
2022-10-19T05:51:06.312Z,1.70
2022-10-19T05:53:34.726Z,1.40
2022-10-19T05:56:02.193Z,1.63
2022-10-19T05:58:30.679Z,1.45
2022-10-19T06:00:58.888Z,1.70
2022-10-19T06:03:26.268Z,1.90
2022-10-19T06:05:54.178Z,1.65
2022-10-19T06:08:21.874Z,1.70
2022-10-19T06:10:49.457Z,1.65
2022-10-19T06:13:17.250Z,1.70
2022-10-19T06:15:44.719Z,2.08
2022-10-19T06:18:13.076Z,1.67
2022-10-19T06:20:41.637Z,2.00
2022-10-19T06:23:09.205Z,2.15
2022-10-19T06:25:36.992Z,1.75
2022-10-19T06:28:04.596Z,1.80
2022-10-19T06:30:31.984Z,1.70
2022-10-19T06:32:59.968Z,1.88
2022-10-19T06:35:27.303Z,1.90
2022-10-19T06:37:57.512Z,1.90
2022-10-19T06:40:25.194Z,1.90
2022-10-19T06:42:52.670Z,2.00
2022-10-19T06:45:19.959Z,1.92
2022-10-19T06:50:20.548Z,1.63
2022-10-19T06:52:48.104Z,1.80
2022-10-19T06:55:17.072Z,2.00
2022-10-19T06:57:45.244Z,2.33
2022-10-19T07:00:12.886Z,2.47
2022-10-19T07:02:40.121Z,1.70
2022-10-19T07:05:07.921Z,2.00
2022-10-19T07:07:35.883Z,2.08
2022-10-19T07:10:03.679Z,2.10
2022-10-19T07:12:30.995Z,2.10
2022-10-19T07:14:58.224Z,2.08
2022-10-19T07:17:25.393Z,2.17
2022-10-19T07:19:52.613Z,2.08
2022-10-19T07:22:24.361Z,2.28
2022-10-19T07:24:54.665Z,2.05
2022-10-19T07:27:21.933Z,2.00
2022-10-19T07:29:49.122Z,2.63
2022-10-19T07:32:16.312Z,1.90
2022-10-19T07:34:45.620Z,2.40
2022-10-19T07:37:12.826Z,2.20
2022-10-19T07:39:40.043Z,2.40
2022-10-19T07:42:07.242Z,2.58
2022-10-19T07:44:34.542Z,2.20
2022-10-19T07:47:01.801Z,2.17
2022-10-19T07:49:29.087Z,2.10
2022-10-19T07:51:56.374Z,2.03
2022-10-19T07:54:24.602Z,1.75
2022-10-19T07:56:51.816Z,1.92
2022-10-19T07:59:19.320Z,1.90
2022-10-19T08:01:47.678Z,2.30
2022-10-19T08:07:02.145Z,2.03
2022-10-19T08:09:59.358Z,1.92
2022-10-19T08:12:17.657Z,2.15
2022-10-19T08:14:44.860Z,2.15
2022-10-19T08:17:16.541Z,2.47
2022-10-19T08:19:44.355Z,2.40
2022-10-19T08:22:11.646Z,2.10
2022-10-19T08:24:38.850Z,2.15
2022-10-19T08:27:06.240Z,2.38
2022-10-19T08:29:33.395Z,2.20
2022-10-19T08:32:00.630Z,1.95
2022-10-19T08:34:27.857Z,2.40
2022-10-19T08:36:55.091Z,2.63
2022-10-19T08:39:22.327Z,2.60
2022-10-19T08:41:58.688Z,2.58
2022-10-19T08:44:35.156Z,2.30
2022-10-19T08:47:02.756Z,2.40
2022-10-19T08:49:32.439Z,2.72
2022-10-19T08:52:01.398Z,2.40
2022-10-19T08:54:36.406Z,2.00
2022-10-19T08:57:12.696Z,2.58
2022-10-19T08:59:42.856Z,2.63
2022-10-19T09:02:17.638Z,2.33
2022-10-19T09:04:50.609Z,2.40
2022-10-19T09:07:22.949Z,2.53
2022-10-19T09:09:56.177Z,2.67
2022-10-19T09:12:36.336Z,2.40
2022-10-19T09:15:06.751Z,2.60
2022-10-19T09:17:34.220Z,2.47
2022-10-19T09:20:16.521Z,2.47
2022-10-19T09:25:17.388Z,2.80
2022-10-19T09:27:46.555Z,2.17
2022-10-19T09:30:19.285Z,2.40
2022-10-19T09:32:47.462Z,2.38
2022-10-19T09:35:17.801Z,2.40
2022-10-19T09:37:47.767Z,2.58
2022-10-19T09:40:22.272Z,2.25
2022-10-19T09:42:59.559Z,2.30
2022-10-19T09:45:33.091Z,2.28
2022-10-19T09:48:07.176Z,2.53
2022-10-19T09:53:06.526Z,2.30
2022-10-19T09:55:38.391Z,2.00
2022-10-19T09:58:14.874Z,2.17
2022-10-19T10:00:43.701Z,1.90
2022-10-19T10:03:30.011Z,1.92
2022-10-19T10:05:58.800Z,1.90
2022-10-19T10:08:31.400Z,2.10
2022-10-19T10:11:18.970Z,1.92
2022-10-19T10:13:50.646Z,1.90
2022-10-19T10:16:19.554Z,2.03
2022-10-19T10:18:51.662Z,1.88
2022-10-19T10:21:26.977Z,2.00
2022-10-19T10:24:00.727Z,1.58
2022-10-19T10:26:28.469Z,1.55
2022-10-19T10:28:57.926Z,1.40
2022-10-19T10:31:29.620Z,1.40
2022-10-19T10:34:12.329Z,1.25
2022-10-19T10:36:51.696Z,1.40
2022-10-19T10:39:19.129Z,1.60
2022-10-19T10:41:48.451Z,1.30
2022-10-19T10:46:59.489Z,1.40
2022-10-19T10:49:45.159Z,1.30
2022-10-19T10:52:14.759Z,1.13
2022-10-19T10:54:57.584Z,1.10
2022-10-19T10:57:26.267Z,1.13
2022-10-19T11:00:02.558Z,1.38
2022-10-19T11:02:38.871Z,1.27
2022-10-19T11:05:27.157Z,1.38
2022-10-19T11:07:56.585Z,1.48
2022-10-19T11:10:45.995Z,1.20
2022-10-19T11:13:24.624Z,1.45
2022-10-19T11:15:56.271Z,1.42
2022-10-19T11:18:26.572Z,1.40
2022-10-19T11:21:14.105Z,1.40
2022-10-19T11:23:48.098Z,1.45
2022-10-19T11:26:27.744Z,1.10
2022-10-19T11:28:54.932Z,1.55
2022-10-19T11:31:36.686Z,1.50
2022-10-19T11:34:26.050Z,1.30
2022-10-19T11:36:59.270Z,1.30
2022-10-19T11:39:26.480Z,1.23
2022-10-19T11:42:12.482Z,1.10
2022-10-19T11:44:45.789Z,1.50
2022-10-19T11:47:25.460Z,1.40
2022-10-19T11:49:55.761Z,1.40
2022-10-19T11:52:46.150Z,1.30
2022-10-19T11:55:23.622Z,1.25
2022-10-19T11:57:53.566Z,1.30
2022-10-19T12:00:38.256Z,1.30
2022-10-19T12:03:27.114Z,1.27
2022-10-19T12:06:03.966Z,1.52
2022-10-19T12:08:40.259Z,1.52
2022-10-19T12:11:27.763Z,1.20
2022-10-19T12:14:01.403Z,1.30
2022-10-19T12:16:32.551Z,1.40
2022-10-19T12:19:00.965Z,1.30
2022-10-19T12:21:36.781Z,1.35
2022-10-19T12:24:05.831Z,1.33
2022-10-19T12:26:36.230Z,1.75
2022-10-19T12:29:06.545Z,1.40
2022-10-19T12:31:34.188Z,1.23
2022-10-19T12:34:10.641Z,1.70
2022-10-19T12:36:38.025Z,1.33
2022-10-19T12:39:12.386Z,1.92
2022-10-19T12:41:52.215Z,1.50
2022-10-19T12:44:34.841Z,1.48
2022-10-19T12:47:09.361Z,1.60
2022-10-19T12:49:38.486Z,1.70
2022-10-19T12:52:07.900Z,1.60
2022-10-19T12:54:36.665Z,1.70
2022-10-19T12:57:05.056Z,1.85
2022-10-19T12:59:34.218Z,1.70
2022-10-19T13:02:02.767Z,2.15
2022-10-19T13:04:31.449Z,2.30
2022-10-19T13:06:58.845Z,1.90
2022-10-19T13:09:35.207Z,1.90
2022-10-19T13:12:22.194Z,2.05
2022-10-19T13:14:52.194Z,1.58
2022-10-19T13:17:34.796Z,2.22
2022-10-19T13:20:14.340Z,2.13
2022-10-19T13:23:11.197Z,2.10
2022-10-19T13:25:41.937Z,1.98
2022-10-19T13:28:15.145Z,2.03
2022-10-19T13:30:42.396Z,2.25
2022-10-19T13:33:25.203Z,2.00
2022-10-19T13:36:02.416Z,2.05
2022-10-19T13:38:40.237Z,1.98
2022-10-19T13:41:26.628Z,1.88
2022-10-19T13:43:57.049Z,2.10
2022-10-19T13:46:27.250Z,1.80
2022-10-19T13:48:54.471Z,1.80
2022-10-19T13:51:33.660Z,1.70
2022-10-19T13:54:12.837Z,1.90
2022-10-19T13:56:54.160Z,1.70
2022-10-19T13:59:42.927Z,1.80
2022-10-19T14:02:28.958Z,1.85
2022-10-19T14:05:14.870Z,1.88
2022-10-19T14:08:01.014Z,1.60
2022-10-19T14:10:33.052Z,1.45
2022-10-19T14:13:15.644Z,1.60
2022-10-19T14:15:51.610Z,1.70
2022-10-19T14:18:24.920Z,1.80
2022-10-19T14:20:59.876Z,1.30
2022-10-19T14:23:28.979Z,1.85
2022-10-19T14:25:56.205Z,1.58
2022-10-19T14:28:24.382Z,1.60
2022-10-19T14:30:56.138Z,1.27
2022-10-19T14:33:25.549Z,1.70
2022-10-19T14:35:53.427Z,1.35
2022-10-19T14:38:43.333Z,1.52
2022-10-19T14:41:19.829Z,1.48
2022-10-19T14:43:47.067Z,1.50
2022-10-19T14:46:15.589Z,1.30
2022-10-19T14:48:45.437Z,1.50
2022-10-19T14:51:31.486Z,1.45
2022-10-19T14:54:01.108Z,1.30
2022-10-19T14:56:37.267Z,1.63
2022-10-19T14:59:04.495Z,1.48
2022-10-19T15:01:31.819Z,1.38
2022-10-19T15:03:59.098Z,1.27
2022-10-19T15:06:31.001Z,1.17
2022-10-19T15:09:00.757Z,1.30
2022-10-19T15:11:30.043Z,1.77
2022-10-19T15:16:34.065Z,1.58
2022-10-19T15:19:12.060Z,1.80
2022-10-19T15:21:39.401Z,1.63
2022-10-19T15:24:08.361Z,2.10
2022-10-19T15:26:35.709Z,1.77
2022-10-19T15:29:20.865Z,2.03
2022-10-19T15:31:48.071Z,1.95
2022-10-19T15:34:41.904Z,1.90
2022-10-19T15:37:16.510Z,1.75
2022-10-19T15:39:45.691Z,1.75
2022-10-19T15:44:44.295Z,1.98
2022-10-19T15:47:20.377Z,1.38
2022-10-19T15:49:55.805Z,1.60
2022-10-19T15:52:24.097Z,1.50
2022-10-19T15:54:52.141Z,1.40
2022-10-19T15:57:25.102Z,1.40
2022-10-19T15:59:52.545Z,1.50
2022-10-19T16:02:19.720Z,1.70
2022-10-19T16:04:46.985Z,1.50
2022-10-19T16:07:20.890Z,1.55
2022-10-19T16:09:48.202Z,1.85
2022-10-19T16:12:18.361Z,1.90
2022-10-19T16:14:45.679Z,2.00
2022-10-19T16:17:13.690Z,1.88
2022-10-19T16:19:40.907Z,2.15
2022-10-19T16:22:08.203Z,2.25
2022-10-19T16:24:35.559Z,2.25
2022-10-19T16:27:03.001Z,2.20
2022-10-19T16:29:30.253Z,2.30
2022-10-19T16:32:00.230Z,1.98
2022-10-19T16:34:27.685Z,2.20
2022-10-19T16:36:54.972Z,2.30
2022-10-19T16:39:22.285Z,2.53
2022-10-19T16:41:49.545Z,2.72
2022-10-19T16:44:19.520Z,2.58
2022-10-19T16:46:46.876Z,2.78
2022-10-19T16:49:14.089Z,2.58
2022-10-19T16:51:41.946Z,3.60
2022-10-19T16:54:12.510Z,3.00
2022-10-19T16:56:44.559Z,3.30
2022-10-19T16:59:13.557Z,3.17
2022-10-19T17:01:40.976Z,3.00
2022-10-19T17:04:08.514Z,3.08
2022-10-19T17:06:36.313Z,3.50
2022-10-19T17:11:51.558Z,3.17
2022-10-19T17:14:18.763Z,4.03
2022-10-19T17:16:46.144Z,3.90
2022-10-19T17:19:13.497Z,3.33
2022-10-19T17:21:42.363Z,3.50
2022-10-19T17:26:38.897Z,4.15
2022-10-19T17:29:06.425Z,3.85
2022-10-19T17:31:33.725Z,3.78
2022-10-19T17:34:01.928Z,3.72
2022-10-19T17:36:30.711Z,3.67
2022-10-19T17:38:59.366Z,4.07
2022-10-19T17:41:27.269Z,3.72
2022-10-19T17:43:54.972Z,4.05
2022-10-19T17:46:26.582Z,4.22
2022-10-19T17:48:55.649Z,4.00
2022-10-19T17:51:24.345Z,4.43
2022-10-19T17:53:51.601Z,4.70
2022-10-19T17:56:20.299Z,4.60
2022-10-19T17:58:48.074Z,3.65
2022-10-19T18:01:15.939Z,4.28
2022-10-19T18:03:43.259Z,4.10
2022-10-19T18:06:14.785Z,4.53
2022-10-19T18:08:43.635Z,4.80
2022-10-19T18:11:12.559Z,5.38
2022-10-19T18:13:40.410Z,5.15
2022-10-19T18:16:16.732Z,5.10
2022-10-19T18:18:51.728Z,4.70
2022-10-19T18:21:20.929Z,4.70
2022-10-19T18:26:21.821Z,4.70
2022-10-19T18:28:49.557Z,4.63
2022-10-19T18:31:21.071Z,5.60
2022-10-19T18:33:49.901Z,5.15
2022-10-19T18:36:17.101Z,6.15
2022-10-19T18:38:44.780Z,5.20
2022-10-19T18:43:50.296Z,5.05
2022-10-19T18:46:18.898Z,5.15
2022-10-19T18:48:46.124Z,4.75
2022-10-19T18:51:15.261Z,4.43
2022-10-19T18:53:43.445Z,4.82
2022-10-19T18:56:11.831Z,4.88
2022-10-19T18:58:39.121Z,4.80
2022-10-19T19:01:13.681Z,4.90
2022-10-19T19:03:42.070Z,4.65
2022-10-19T19:06:13.503Z,4.30
2022-10-19T19:08:41.157Z,4.75
2022-10-19T19:11:14.619Z,4.65
2022-10-19T19:13:42.817Z,4.63
2022-10-19T19:16:10.273Z,4.30
2022-10-19T19:18:37.521Z,4.38
2022-10-19T19:21:05.429Z,4.20
2022-10-19T19:23:32.798Z,4.30
2022-10-19T19:25:59.998Z,4.43
2022-10-19T19:28:27.355Z,4.47
2022-10-19T19:30:54.589Z,4.88
2022-10-19T19:33:21.834Z,4.95
2022-10-19T19:35:50.360Z,4.93
2022-10-19T19:38:17.594Z,4.60
2022-10-19T19:40:46.070Z,4.60
2022-10-19T19:43:14.284Z,4.38
2022-10-19T19:45:41.825Z,4.22
2022-10-19T19:48:09.745Z,4.22
2022-10-19T19:50:38.228Z,3.90
2022-10-19T19:53:05.544Z,4.10
2022-10-19T19:55:38.126Z,4.07
2022-10-19T19:58:06.377Z,4.18
2022-10-19T20:00:33.640Z,4.22
2022-10-19T20:03:01.206Z,4.03
2022-10-19T20:05:28.522Z,4.30
2022-10-19T20:07:55.718Z,3.58
2022-10-19T20:10:24.979Z,3.95
2022-10-19T20:12:53.251Z,4.00
2022-10-19T20:15:20.665Z,4.00
2022-10-19T20:17:47.888Z,3.72
2022-10-19T20:20:17.870Z,4.05
2022-10-19T20:22:48.312Z,4.10
2022-10-19T20:25:15.814Z,4.00
2022-10-19T20:27:43.073Z,3.78
2022-10-19T20:30:10.609Z,4.40
2022-10-19T20:32:38.243Z,4.25
2022-10-19T20:35:07.483Z,4.28
2022-10-19T20:37:34.791Z,3.78
2022-10-19T20:40:08.150Z,4.03
2022-10-19T20:42:36.445Z,4.22
2022-10-19T20:45:04.353Z,4.50
2022-10-19T20:47:32.142Z,4.15
2022-10-19T20:49:59.417Z,4.05
2022-10-19T20:52:27.000Z,4.10
2022-10-19T20:54:54.260Z,4.35
2022-10-19T20:57:21.517Z,3.90
2022-10-19T20:59:50.000Z,4.10
2022-10-19T21:02:17.314Z,4.28
2022-10-19T21:04:44.585Z,4.05
2022-10-19T21:07:11.905Z,3.92
2022-10-19T21:09:39.164Z,4.00
2022-10-19T21:12:06.522Z,3.90
2022-10-19T21:14:33.853Z,4.03
2022-10-19T21:17:01.161Z,4.03
2022-10-19T21:19:29.462Z,3.80
2022-10-19T21:21:58.535Z,4.03
2022-10-19T21:24:27.648Z,3.70
2022-10-19T21:26:54.921Z,3.95
2022-10-19T21:29:22.296Z,3.92
2022-10-19T21:31:50.558Z,3.70
2022-10-19T21:34:22.601Z,4.57
2022-10-19T21:36:50.162Z,4.10
2022-10-19T21:39:17.702Z,3.95
2022-10-19T21:41:45.129Z,4.20
2022-10-19T21:44:12.735Z,3.70
2022-10-19T21:46:40.144Z,3.92
2022-10-19T21:49:07.458Z,3.50
2022-10-19T21:51:44.009Z,4.10
2022-10-19T21:54:16.114Z,3.80
2022-10-19T21:56:43.901Z,4.03
2022-10-19T21:59:12.105Z,3.75
2022-10-19T22:01:41.311Z,3.70
2022-10-19T22:04:11.614Z,3.85
2022-10-19T22:06:39.031Z,3.70
2022-10-19T22:09:07.607Z,3.88
2022-10-19T22:11:34.945Z,3.92
2022-10-19T22:14:03.021Z,4.00
2022-10-19T22:16:30.948Z,3.58
2022-10-19T22:18:58.168Z,3.67
2022-10-19T22:21:27.253Z,3.97
2022-10-19T22:24:05.432Z,3.75
2022-10-19T22:26:36.695Z,3.60
2022-10-19T22:29:05.427Z,3.80
2022-10-19T22:31:33.121Z,3.60
2022-10-19T22:34:01.285Z,3.42
2022-10-19T22:36:28.585Z,3.60
2022-10-19T22:38:55.799Z,3.53
2022-10-19T22:42:00.691Z,4.00
2022-10-19T22:44:46.543Z,3.40
2022-10-19T22:47:13.777Z,3.20
2022-10-19T22:49:40.971Z,3.53
2022-10-19T22:52:08.213Z,3.47
2022-10-19T22:54:35.456Z,3.75
2022-10-19T22:57:02.840Z,3.67
2022-10-19T22:59:30.148Z,3.63
2022-10-19T23:01:57.382Z,3.60
2022-10-19T23:04:24.704Z,3.40
2022-10-19T23:06:51.921Z,3.80
2022-10-19T23:09:19.113Z,3.67
2022-10-19T23:11:46.453Z,3.40
2022-10-19T23:14:13.640Z,3.80
2022-10-19T23:16:40.960Z,3.47
2022-10-19T23:19:08.208Z,3.78
2022-10-19T23:21:35.365Z,3.47
2022-10-19T23:24:02.584Z,3.60
2022-10-19T23:26:29.779Z,3.60
2022-10-19T23:28:57.036Z,3.40
2022-10-19T23:31:30.193Z,3.42
2022-10-19T23:33:57.503Z,3.70
2022-10-19T23:36:28.906Z,3.50
2022-10-19T23:38:56.899Z,3.72
2022-10-19T23:41:24.543Z,3.47
2022-10-19T23:43:51.748Z,3.45
2022-10-19T23:46:19.050Z,3.60
2022-10-19T23:48:46.311Z,3.97
2022-10-19T23:51:15.074Z,3.60
2022-10-19T23:53:43.905Z,3.75
2022-10-19T23:56:15.564Z,3.75
2022-10-19T23:58:43.080Z,3.60
